Terminal Aerodrome Forecast
Issued by NWS

Home | Current Version | Previous Version | Text Only | Print | Product List | Glossary On
Versions: 1 2 3 4 5 6 7 8 9 10 11 12 13 14 15 16 17 18 19 20
000
FTUS45 KFGZ 280500
TAFPGA
TAF
KPGA 280520Z 2806/2906 VRB05KT P6SM FEW110
     FM282200 VRB10G20KT P6SM VCTS BKN100CB
      TEMPO 2902/2906 VRB20G35KT 4SM TSRA BKN080CB=

USA.gov is the U.S. government's official web portal to all federal, state and local government web resources and services.